createdAt,value
2022-11-09T00:00:51.797Z,17.75
2022-11-09T00:03:19.081Z,17.17
2022-11-09T00:05:57.849Z,16.73
2022-11-09T00:08:24.808Z,20.50
2022-11-09T00:10:51.626Z,15.07
2022-11-09T00:13:19.026Z,20.02
2022-11-09T00:15:46.004Z,20.17
2022-11-09T00:18:12.875Z,20.17
2022-11-09T00:20:44.517Z,15.70
2022-11-09T00:23:14.074Z,21.42
2022-11-09T00:25:40.912Z,18.38
2022-11-09T00:28:07.816Z,19.92
2022-11-09T00:30:34.672Z,18.80
2022-11-09T00:33:01.486Z,15.90
2022-11-09T00:35:28.313Z,18.65
2022-11-09T00:37:55.716Z,18.17
2022-11-09T00:40:22.708Z,19.27
2022-11-09T00:42:49.557Z,14.75
2022-11-09T00:45:16.858Z,18.02
2022-11-09T00:47:44.721Z,18.50
2022-11-09T00:50:11.999Z,16.00
2022-11-09T00:52:38.989Z,20.55
2022-11-09T00:55:06.986Z,24.85
2022-11-09T00:57:33.918Z,17.10
2022-11-09T01:00:01.181Z,16.90
2022-11-09T01:02:28.042Z,17.13
2022-11-09T01:04:56.999Z,19.30
2022-11-09T01:07:26.151Z,18.60
2022-11-09T01:09:53.240Z,19.02
2022-11-09T01:12:24.380Z,15.00
2022-11-09T01:14:51.680Z,17.70
2022-11-09T01:17:18.595Z,15.48
2022-11-09T01:19:47.005Z,17.17
2022-11-09T01:22:14.929Z,17.05
2022-11-09T01:24:41.776Z,17.70
2022-11-09T01:27:08.676Z,13.73
2022-11-09T01:29:36.465Z,21.77
2022-11-09T01:32:03.895Z,13.75
2022-11-09T01:34:32.031Z,15.35
2022-11-09T01:37:02.327Z,19.45
2022-11-09T01:39:30.236Z,17.38
2022-11-09T01:41:57.347Z,17.35
2022-11-09T01:44:27.215Z,16.35
2022-11-09T01:46:58.763Z,16.75
2022-11-09T01:49:52.721Z,16.67
2022-11-09T01:52:32.247Z,16.38
2022-11-09T01:55:02.088Z,15.82
2022-11-09T01:57:34.777Z,13.40
2022-11-09T02:00:13.151Z,13.98
2022-11-09T02:02:46.488Z,16.60
2022-11-09T02:05:16.824Z,17.25
2022-11-09T02:07:45.276Z,16.08
2022-11-09T02:10:37.609Z,15.48
2022-11-09T02:13:04.520Z,14.27
2022-11-09T02:18:11.041Z,18.95
2022-11-09T02:20:48.585Z,13.93
2022-11-09T02:23:15.523Z,19.73
2022-11-09T02:25:43.479Z,17.80
2022-11-09T02:28:10.785Z,15.32
2022-11-09T02:30:37.958Z,14.15
2022-11-09T02:33:05.084Z,18.63
2022-11-09T02:35:32.009Z,15.73
2022-11-09T02:37:58.882Z,18.13
2022-11-09T02:40:34.570Z,16.45
2022-11-09T02:43:01.418Z,17.35
2022-11-09T02:45:28.355Z,15.55
2022-11-09T02:47:55.276Z,16.98
2022-11-09T02:50:22.601Z,12.00
2022-11-09T02:52:49.452Z,15.00
2022-11-09T02:55:17.737Z,12.15
2022-11-09T02:57:44.763Z,22.20
2022-11-09T03:00:14.482Z,13.02
2022-11-09T03:02:42.851Z,13.07
2022-11-09T03:05:09.870Z,16.08
2022-11-09T03:07:40.428Z,12.32
2022-11-09T03:10:07.718Z,13.85
2022-11-09T03:12:35.061Z,13.93
2022-11-09T03:15:13.893Z,14.85
2022-11-09T03:17:44.531Z,10.35
2022-11-09T03:20:11.469Z,17.73
2022-11-09T03:22:39.576Z,12.77
2022-11-09T03:25:07.039Z,12.32
2022-11-09T03:27:33.957Z,14.43
2022-11-09T03:30:01.957Z,12.43
2022-11-09T03:32:29.823Z,11.85
2022-11-09T03:34:57.102Z,10.00
2022-11-09T03:37:23.931Z,11.73
2022-11-09T03:39:51.387Z,14.05
2022-11-09T03:42:18.307Z,10.40
2022-11-09T03:44:45.190Z,9.63
2022-11-09T03:47:11.986Z,10.73
2022-11-09T03:49:38.836Z,12.60
2022-11-09T03:52:05.697Z,13.75
2022-11-09T03:54:32.607Z,11.60
2022-11-09T03:56:59.484Z,11.82
2022-11-09T03:59:26.363Z,15.13
2022-11-09T04:01:53.277Z,11.02
2022-11-09T04:04:20.329Z,8.98
2022-11-09T04:06:47.179Z,9.23
2022-11-09T04:09:14.116Z,11.52
2022-11-09T04:11:40.959Z,12.55
2022-11-09T04:14:07.817Z,12.50
2022-11-09T04:16:34.661Z,10.02
2022-11-09T04:19:01.505Z,11.10
2022-11-09T04:21:28.337Z,10.50
2022-11-09T04:23:55.324Z,9.40
2022-11-09T04:26:22.130Z,17.33
2022-11-09T04:28:49.069Z,14.07
2022-11-09T04:31:15.948Z,11.10
2022-11-09T04:33:42.765Z,8.60
2022-11-09T04:36:09.679Z,9.25
2022-11-09T04:38:36.586Z,9.30
2022-11-09T04:41:04.415Z,9.40
2022-11-09T04:43:31.354Z,9.75
2022-11-09T04:46:02.215Z,10.38
2022-11-09T04:48:29.977Z,7.55
2022-11-09T04:51:01.377Z,8.95
2022-11-09T04:53:28.386Z,9.63
2022-11-09T04:55:55.339Z,8.88
2022-11-09T04:58:24.904Z,9.95
2022-11-09T05:00:52.372Z,11.93
2022-11-09T05:03:19.561Z,7.35
2022-11-09T05:05:48.452Z,7.53
2022-11-09T05:08:15.600Z,8.23
2022-11-09T05:10:42.511Z,11.90
2022-11-09T05:13:11.090Z,10.10
2022-11-09T05:15:37.984Z,12.50
2022-11-09T05:18:05.248Z,10.48
2022-11-09T05:20:32.167Z,12.80
2022-11-09T05:23:18.333Z,11.50
2022-11-09T05:25:45.766Z,9.48
2022-11-09T05:28:12.697Z,7.25
2022-11-09T05:30:39.554Z,8.73
2022-11-09T05:33:06.394Z,12.13
2022-11-09T05:35:33.572Z,9.07
2022-11-09T05:38:00.412Z,8.77
2022-11-09T05:40:27.398Z,10.57
2022-11-09T05:42:56.056Z,9.23
2022-11-09T05:45:41.897Z,7.97
2022-11-09T05:48:10.241Z,6.78
2022-11-09T05:50:37.550Z,9.65
2022-11-09T05:53:24.640Z,7.90
2022-11-09T05:55:51.828Z,6.50
2022-11-09T05:58:18.753Z,8.20
2022-11-09T06:00:45.626Z,7.15
2022-11-09T06:03:12.528Z,6.90
2022-11-09T06:05:40.196Z,6.13
2022-11-09T06:08:14.318Z,5.95
2022-11-09T06:10:41.890Z,6.05
2022-11-09T06:13:08.854Z,5.80
2022-11-09T06:15:35.695Z,7.10
2022-11-09T06:18:02.511Z,6.53
2022-11-09T06:20:29.649Z,7.00
2022-11-09T06:23:03.150Z,5.80
2022-11-09T06:25:34.129Z,5.35
2022-11-09T06:28:01.153Z,5.93
2022-11-09T06:30:28.092Z,6.00
2022-11-09T06:32:59.631Z,8.13
2022-11-09T06:35:26.489Z,6.83
2022-11-09T06:37:57.788Z,6.05
2022-11-09T06:40:24.682Z,6.53
2022-11-09T06:42:51.683Z,7.15
2022-11-09T06:45:18.543Z,6.47
2022-11-09T06:47:45.359Z,4.90
2022-11-09T06:50:12.528Z,4.63
2022-11-09T06:52:39.324Z,6.78
2022-11-09T06:55:06.881Z,7.22
2022-11-09T06:57:33.842Z,4.18
2022-11-09T07:00:00.667Z,7.00
2022-11-09T07:02:27.760Z,6.35
2022-11-09T07:04:54.633Z,7.22
2022-11-09T07:07:27.406Z,4.53
2022-11-09T07:09:55.888Z,4.35
2022-11-09T07:12:22.733Z,10.27
2022-11-09T07:14:49.593Z,7.15
2022-11-09T07:17:16.388Z,10.35
2022-11-09T07:19:43.164Z,8.68
2022-11-09T07:22:09.982Z,9.27
2022-11-09T07:24:37.064Z,9.65
2022-11-09T07:27:03.953Z,6.53
2022-11-09T07:29:30.832Z,7.80
2022-11-09T07:31:57.713Z,5.78
2022-11-09T07:34:24.630Z,7.45
2022-11-09T07:36:54.166Z,8.70
2022-11-09T07:39:21.034Z,5.30
2022-11-09T07:41:48.637Z,6.93
2022-11-09T07:44:18.310Z,5.88
2022-11-09T07:46:47.545Z,5.10
2022-11-09T07:49:15.437Z,7.43
2022-11-09T07:51:42.441Z,5.03
2022-11-09T07:54:09.817Z,5.35
2022-11-09T07:56:37.296Z,4.65
2022-11-09T07:59:04.239Z,7.63
2022-11-09T08:01:31.204Z,7.38
2022-11-09T08:03:58.108Z,7.13
2022-11-09T08:06:28.021Z,5.75
2022-11-09T08:08:55.472Z,3.80
2022-11-09T08:11:22.331Z,5.10
2022-11-09T08:13:52.989Z,7.20
2022-11-09T08:16:19.912Z,7.93
2022-11-09T08:18:46.764Z,6.72
2022-11-09T08:21:13.608Z,7.35
2022-11-09T08:23:40.834Z,5.22
2022-11-09T08:26:07.705Z,8.05
2022-11-09T08:28:34.630Z,6.68
2022-11-09T08:31:03.156Z,9.10
2022-11-09T08:33:30.892Z,6.00
2022-11-09T08:35:57.733Z,5.60
2022-11-09T08:38:24.700Z,8.05
2022-11-09T08:40:57.006Z,9.18
2022-11-09T08:43:23.951Z,8.32
2022-11-09T08:45:50.796Z,6.50
2022-11-09T08:48:18.048Z,6.10
2022-11-09T08:50:45.074Z,8.15
2022-11-09T08:53:12.078Z,5.93
2022-11-09T08:55:38.960Z,6.43
2022-11-09T08:58:05.780Z,6.03
2022-11-09T09:00:32.599Z,9.43
2022-11-09T09:03:02.546Z,7.97
2022-11-09T09:05:29.483Z,6.72
2022-11-09T09:07:56.320Z,7.22
2022-11-09T09:10:23.136Z,5.40
2022-11-09T09:12:49.937Z,6.57
2022-11-09T09:15:16.842Z,7.78
2022-11-09T09:17:43.718Z,5.82
2022-11-09T09:20:10.656Z,6.72
2022-11-09T09:22:37.775Z,8.98
2022-11-09T09:25:05.062Z,4.70
2022-11-09T09:27:31.896Z,5.47
2022-11-09T09:29:58.798Z,6.15
2022-11-09T09:32:25.735Z,6.45
2022-11-09T09:34:52.541Z,6.38
2022-11-09T09:37:19.467Z,6.60
2022-11-09T09:39:46.362Z,4.00
2022-11-09T09:42:19.843Z,4.97
2022-11-09T09:44:51.382Z,6.18
2022-11-09T09:47:53.520Z,6.30
2022-11-09T09:50:32.608Z,5.30
2022-11-09T09:53:23.901Z,6.78
2022-11-09T09:55:55.272Z,8.60
2022-11-09T09:58:29.847Z,7.13
2022-11-09T10:01:06.689Z,7.00
2022-11-09T10:03:33.675Z,5.32
2022-11-09T10:06:41.658Z,6.43
2022-11-09T10:09:33.381Z,4.05
2022-11-09T10:12:37.765Z,7.63
2022-11-09T10:15:19.647Z,5.53
2022-11-09T10:18:22.165Z,7.07
2022-11-09T10:21:06.086Z,5.13
2022-11-09T10:23:38.964Z,5.25
2022-11-09T10:26:16.016Z,7.93
2022-11-09T10:29:13.989Z,5.93
2022-11-09T10:31:33.601Z,6.07
2022-11-09T10:34:12.198Z,5.95
2022-11-09T10:36:51.313Z,6.78
2022-11-09T10:39:18.099Z,8.27
2022-11-09T10:42:03.771Z,8.73
2022-11-09T10:44:49.326Z,6.03
2022-11-09T10:47:47.389Z,7.40
2022-11-09T10:50:35.582Z,5.63
2022-11-09T10:53:22.898Z,5.55
2022-11-09T10:56:21.253Z,8.18
2022-11-09T10:59:30.100Z,6.68
2022-11-09T11:02:27.907Z,8.68
2022-11-09T11:05:16.491Z,6.40
2022-11-09T11:08:19.664Z,8.05
2022-11-09T11:11:35.415Z,5.75
2022-11-09T11:14:35.315Z,7.30
2022-11-09T11:17:21.484Z,7.93
2022-11-09T11:20:26.530Z,7.40
2022-11-09T11:23:12.885Z,5.80
2022-11-09T11:26:04.676Z,6.25
2022-11-09T11:28:56.447Z,8.23
2022-11-09T11:31:41.914Z,5.97
2022-11-09T11:34:58.073Z,6.38
2022-11-09T11:37:56.202Z,8.38
2022-11-09T11:40:48.709Z,4.70
2022-11-09T11:43:48.780Z,7.90
2022-11-09T11:46:47.272Z,6.85
2022-11-09T11:49:41.744Z,5.75
2022-11-09T11:52:49.581Z,7.28
2022-11-09T11:55:45.917Z,9.30
2022-11-09T11:59:06.693Z,6.63
2022-11-09T12:01:54.901Z,6.05
2022-11-09T12:04:46.621Z,10.25
2022-11-09T12:07:38.757Z,5.65
2022-11-09T12:10:33.416Z,8.35
2022-11-09T12:13:49.669Z,9.60
2022-11-09T12:16:40.410Z,5.70
2022-11-09T12:19:35.575Z,7.40
2022-11-09T12:22:29.632Z,8.60
2022-11-09T12:25:18.957Z,7.03
2022-11-09T12:28:19.372Z,7.68
2022-11-09T12:31:24.382Z,9.23
2022-11-09T12:34:25.187Z,7.20
2022-11-09T12:37:15.233Z,6.50
2022-11-09T12:40:13.790Z,8.50
2022-11-09T12:43:05.912Z,7.93
2022-11-09T12:45:52.080Z,7.53
2022-11-09T12:48:37.380Z,8.07
2022-11-09T12:51:22.794Z,7.28
2022-11-09T12:54:11.391Z,9.23
2022-11-09T12:57:08.032Z,7.70
2022-11-09T12:59:55.355Z,7.90
2022-11-09T13:03:00.812Z,7.90
2022-11-09T13:05:47.655Z,9.63
2022-11-09T13:08:35.586Z,8.73
2022-11-09T13:11:22.148Z,6.35
2022-11-09T13:14:23.131Z,7.40
2022-11-09T13:17:26.945Z,9.55
2022-11-09T13:20:53.863Z,11.20
2022-11-09T13:26:48.249Z,10.70
2022-11-09T13:29:40.020Z,8.32
2022-11-09T13:32:30.071Z,13.48
2022-11-09T13:35:40.323Z,10.55
2022-11-09T13:38:29.326Z,7.68
2022-11-09T13:41:30.734Z,6.40
2022-11-09T13:44:26.993Z,8.77
2022-11-09T13:47:34.025Z,7.25
2022-11-09T13:50:24.249Z,6.40
2022-11-09T13:53:29.569Z,8.80
2022-11-09T13:56:24.735Z,9.60
2022-11-09T13:59:24.851Z,9.88
2022-11-09T14:02:22.547Z,9.25
2022-11-09T14:05:30.072Z,9.68
2022-11-09T14:08:22.682Z,9.40
2022-11-09T14:14:24.119Z,6.65
2022-11-09T14:17:18.348Z,8.35
2022-11-09T14:20:49.605Z,9.00
2022-11-09T14:23:34.857Z,8.18
2022-11-09T14:26:22.735Z,7.97
2022-11-09T14:29:23.969Z,8.23
2022-11-09T14:32:18.530Z,8.82
2022-11-09T14:35:36.028Z,7.40
2022-11-09T14:38:25.730Z,8.82
2022-11-09T14:41:22.858Z,9.20
2022-11-09T14:44:13.866Z,10.32
2022-11-09T14:46:59.302Z,5.90
2022-11-09T14:49:46.023Z,8.30
2022-11-09T14:52:31.577Z,6.68
2022-11-09T14:55:17.457Z,9.73
2022-11-09T14:58:02.662Z,10.18
2022-11-09T15:01:25.078Z,8.35
2022-11-09T15:04:20.118Z,7.22
2022-11-09T15:07:05.783Z,8.23
2022-11-09T15:09:56.956Z,6.93
2022-11-09T15:12:48.270Z,7.63
2022-11-09T15:15:34.665Z,6.60
2022-11-09T15:18:33.863Z,7.88
2022-11-09T15:21:26.500Z,6.60
2022-11-09T15:24:15.224Z,9.55
2022-11-09T15:27:00.851Z,10.77
2022-11-09T15:29:46.406Z,8.77
2022-11-09T15:32:34.384Z,8.68
2022-11-09T15:35:23.126Z,8.82
2022-11-09T15:38:28.318Z,9.02
2022-11-09T15:41:19.368Z,9.85
2022-11-09T15:44:05.817Z,9.48
2022-11-09T15:46:52.168Z,10.05
2022-11-09T15:49:37.433Z,9.07
2022-11-09T15:52:23.069Z,11.02
2022-11-09T15:55:09.349Z,10.48
2022-11-09T15:57:54.747Z,9.38
2022-11-09T16:00:40.189Z,7.97
2022-11-09T16:03:25.730Z,8.23
2022-11-09T16:06:11.444Z,8.20
2022-11-09T16:08:56.717Z,9.35
2022-11-09T16:11:42.056Z,8.43
2022-11-09T16:14:30.753Z,7.20
2022-11-09T16:17:16.449Z,7.50
2022-11-09T16:20:01.988Z,11.52
2022-11-09T16:22:47.892Z,9.20
2022-11-09T16:25:33.707Z,7.97
2022-11-09T16:28:19.792Z,6.32
2022-11-09T16:31:05.323Z,10.57
2022-11-09T16:33:50.780Z,9.70
2022-11-09T16:36:38.878Z,12.02
2022-11-09T16:39:26.102Z,9.63
2022-11-09T16:42:12.082Z,8.65
2022-11-09T16:44:58.433Z,7.80
2022-11-09T16:47:48.803Z,8.85
2022-11-09T16:50:34.538Z,7.57
2022-11-09T16:53:26.772Z,8.07
2022-11-09T16:56:13.214Z,10.32
2022-11-09T16:58:58.551Z,10.02
2022-11-09T17:01:52.487Z,9.85
2022-11-09T17:04:38.583Z,10.45
2022-11-09T17:07:24.229Z,8.65
2022-11-09T17:10:10.514Z,6.72
2022-11-09T17:12:56.792Z,9.40
2022-11-09T17:15:43.926Z,10.80
2022-11-09T17:18:29.432Z,8.50
2022-11-09T17:21:15.086Z,9.48
2022-11-09T17:24:00.473Z,8.40
2022-11-09T17:26:45.630Z,8.68
2022-11-09T17:29:31.321Z,8.77
2022-11-09T17:32:16.954Z,11.85
2022-11-09T17:35:02.556Z,11.52
2022-11-09T17:37:48.761Z,9.80
2022-11-09T17:40:34.511Z,12.27
2022-11-09T17:43:20.648Z,9.00
2022-11-09T17:46:10.996Z,12.55
2022-11-09T17:48:56.434Z,9.82
2022-11-09T17:51:41.990Z,10.30
2022-11-09T17:54:33.965Z,13.25
2022-11-09T17:57:22.318Z,11.68
2022-11-09T18:00:10.116Z,10.02
2022-11-09T18:02:55.784Z,9.68
2022-11-09T18:05:41.605Z,14.20
2022-11-09T18:08:26.751Z,10.57
2022-11-09T18:11:12.466Z,10.30
2022-11-09T18:13:59.493Z,9.05
2022-11-09T18:16:45.284Z,11.02
2022-11-09T18:19:30.861Z,13.20
2022-11-09T18:22:16.390Z,12.82
2022-11-09T18:25:01.991Z,14.05
2022-11-09T18:27:47.733Z,13.93
2022-11-09T18:30:33.422Z,13.90
2022-11-09T18:33:19.013Z,16.42
2022-11-09T18:36:23.780Z,13.60
2022-11-09T18:39:09.317Z,11.35
2022-11-09T18:41:56.925Z,9.20
2022-11-09T18:44:42.424Z,10.73
2022-11-09T18:47:28.705Z,10.98
2022-11-09T18:50:14.086Z,15.52
2022-11-09T18:52:59.835Z,9.85
2022-11-09T18:55:45.538Z,10.93
2022-11-09T18:58:31.345Z,10.07
2022-11-09T19:01:16.845Z,11.93
2022-11-09T19:04:02.496Z,10.48
2022-11-09T19:06:47.800Z,10.38
2022-11-09T19:09:35.745Z,9.65
2022-11-09T19:12:21.483Z,9.05
2022-11-09T19:15:07.304Z,12.40
2022-11-09T19:17:52.748Z,6.75
2022-11-09T19:20:39.003Z,11.73
2022-11-09T19:23:26.458Z,10.38
2022-11-09T19:26:14.957Z,9.63
2022-11-09T19:29:00.421Z,10.30
2022-11-09T19:31:46.186Z,11.18
2022-11-09T19:34:31.407Z,8.07
2022-11-09T19:37:16.953Z,9.82
2022-11-09T19:40:02.448Z,11.32
2022-11-09T19:42:47.698Z,10.25
2022-11-09T19:45:33.251Z,12.23
2022-11-09T19:48:19.008Z,11.73
2022-11-09T19:51:04.972Z,10.48
2022-11-09T19:53:54.497Z,11.38
2022-11-09T19:56:40.131Z,10.43
2022-11-09T19:59:25.671Z,13.90
2022-11-09T20:02:11.550Z,14.18
2022-11-09T20:04:56.972Z,10.43
2022-11-09T20:07:43.449Z,13.10
2022-11-09T20:10:28.977Z,17.05
2022-11-09T20:13:14.259Z,13.23
2022-11-09T20:16:07.505Z,13.45
2022-11-09T20:18:52.888Z,14.65
2022-11-09T20:21:40.145Z,11.30
2022-11-09T20:24:25.377Z,11.20
2022-11-09T20:27:10.923Z,14.82
2022-11-09T20:29:56.244Z,14.50
2022-11-09T20:32:41.919Z,9.70
2022-11-09T20:35:27.522Z,11.18
2022-11-09T20:38:12.975Z,10.63
2022-11-09T20:41:00.952Z,12.63
2022-11-09T20:43:46.109Z,11.57
2022-11-09T20:46:36.178Z,13.98
2022-11-09T20:49:22.413Z,13.20
2022-11-09T20:52:08.095Z,9.40
2022-11-09T20:54:53.550Z,13.27
2022-11-09T20:57:39.338Z,12.50
2022-11-09T21:00:24.890Z,11.60
2022-11-09T21:03:10.573Z,9.73
2022-11-09T21:05:59.938Z,16.42
2022-11-09T21:08:45.953Z,14.95
2022-11-09T21:11:34.617Z,12.55
2022-11-09T21:14:20.045Z,13.35
2022-11-09T21:17:05.505Z,12.98
2022-11-09T21:19:51.479Z,10.82
2022-11-09T21:22:55.202Z,12.02
2022-11-09T21:26:00.377Z,13.82
2022-11-09T21:29:04.284Z,13.68
2022-11-09T21:31:49.854Z,15.13
2022-11-09T21:34:37.126Z,14.65
2022-11-09T21:37:22.773Z,15.20
2022-11-09T21:40:09.635Z,12.70
2022-11-09T21:42:55.741Z,13.75
2022-11-09T21:45:41.886Z,15.65
2022-11-09T21:48:27.483Z,13.45
2022-11-09T21:51:13.017Z,13.18
2022-11-09T21:53:58.718Z,11.57
2022-11-09T21:56:44.119Z,11.32
2022-11-09T21:59:29.543Z,11.52
2022-11-09T22:02:15.225Z,19.83
2022-11-09T22:05:00.434Z,9.90
2022-11-09T22:07:45.933Z,12.48
2022-11-09T22:10:31.597Z,13.55
2022-11-09T22:13:35.802Z,12.15
2022-11-09T22:16:21.878Z,16.05
2022-11-09T22:19:25.686Z,13.90
2022-11-09T22:22:11.257Z,12.50
2022-11-09T22:24:56.905Z,12.02
2022-11-09T22:27:42.241Z,12.35
2022-11-09T22:30:27.578Z,14.05
2022-11-09T22:33:14.432Z,11.35
2022-11-09T22:36:01.631Z,10.85
2022-11-09T22:38:47.195Z,10.68
2022-11-09T22:41:32.692Z,12.10
2022-11-09T22:44:18.114Z,15.55
2022-11-09T22:47:03.755Z,18.25
2022-11-09T22:49:49.033Z,14.57
2022-11-09T22:52:34.471Z,15.10
2022-11-09T22:55:20.133Z,12.93
2022-11-09T22:58:06.183Z,10.93
2022-11-09T23:00:52.014Z,12.75
2022-11-09T23:03:37.482Z,17.30
2022-11-09T23:06:23.518Z,13.60
2022-11-09T23:09:09.259Z,16.17
2022-11-09T23:11:54.366Z,14.50
2022-11-09T23:14:58.453Z,16.27
2022-11-09T23:18:02.518Z,16.17
2022-11-09T23:20:48.172Z,16.65
2022-11-09T23:23:33.625Z,13.10
2022-11-09T23:26:19.398Z,13.95
2022-11-09T23:29:04.597Z,24.08
2022-11-09T23:31:49.898Z,20.80
2022-11-09T23:34:35.323Z,13.68
2022-11-09T23:37:20.765Z,15.95
2022-11-09T23:40:09.392Z,22.08
2022-11-09T23:43:02.568Z,16.52
2022-11-09T23:45:47.761Z,16.83
2022-11-09T23:48:33.397Z,14.93
2022-11-09T23:51:18.853Z,13.63
2022-11-09T23:54:04.042Z,24.77
2022-11-09T23:56:49.561Z,15.95
2022-11-09T23:59:34.962Z,14.77
